createdAt,value
2023-03-05T00:01:34.190Z,98.34
2023-03-05T00:04:04.158Z,99.35
2023-03-05T00:06:33.684Z,100.00
2023-03-05T00:09:02.424Z,100.00
2023-03-05T00:11:33.437Z,100.00
2023-03-05T00:14:04.097Z,100.00
2023-03-05T00:16:34.508Z,100.00
2023-03-05T00:19:03.347Z,100.00
2023-03-05T00:21:33.486Z,100.00
2023-03-05T00:24:03.847Z,100.00
2023-03-05T00:26:34.618Z,100.00
2023-03-05T00:29:03.359Z,100.00
2023-03-05T00:31:34.928Z,100.00
2023-03-05T00:34:05.584Z,100.00
2023-03-05T00:36:34.639Z,100.00
2023-03-05T00:39:03.041Z,100.00
2023-03-05T00:41:31.395Z,100.00
2023-03-05T00:43:59.892Z,100.00
2023-03-05T00:46:28.417Z,100.00
2023-03-05T00:48:58.428Z,100.00
2023-03-05T00:51:27.522Z,100.00
2023-03-05T00:53:56.375Z,100.00
2023-03-05T00:56:25.070Z,100.00
2023-03-05T00:58:54.308Z,100.00
2023-03-05T01:01:22.734Z,100.00
2023-03-05T01:03:51.873Z,100.00
2023-03-05T01:06:21.562Z,100.00
2023-03-05T01:08:50.192Z,100.00
2023-03-05T01:11:18.634Z,100.00
2023-03-05T01:13:46.990Z,100.00
2023-03-05T01:16:15.433Z,100.00
2023-03-05T01:18:43.794Z,100.00
2023-03-05T01:21:12.134Z,100.00
2023-03-05T01:23:41.805Z,100.00
2023-03-05T01:26:10.118Z,100.00
2023-03-05T01:28:38.737Z,100.00
2023-03-05T01:31:11.535Z,100.00
2023-03-05T01:33:40.487Z,100.00
2023-03-05T01:36:13.273Z,100.00
2023-03-05T01:38:43.437Z,98.09
2023-03-05T01:41:12.772Z,96.67
2023-03-05T01:43:43.064Z,95.98
2023-03-05T01:46:28.734Z,95.15
2023-03-05T01:49:03.275Z,94.62
2023-03-05T01:51:34.243Z,95.13
2023-03-05T01:54:07.190Z,93.58
2023-03-05T01:56:36.788Z,93.18
2023-03-05T01:59:05.448Z,91.72
2023-03-05T02:01:37.920Z,92.18
2023-03-05T02:04:07.837Z,90.54
2023-03-05T02:06:36.843Z,90.06
2023-03-05T02:09:06.678Z,89.92
2023-03-05T02:11:36.056Z,89.88
2023-03-05T02:14:07.827Z,86.65
2023-03-05T02:16:39.555Z,86.68
2023-03-05T02:19:13.023Z,87.55
2023-03-05T02:21:45.125Z,87.72
2023-03-05T02:24:14.778Z,86.80
2023-03-05T02:26:44.834Z,85.15
2023-03-05T02:29:18.133Z,85.00
2023-03-05T02:31:46.743Z,86.44
2023-03-05T02:34:15.912Z,84.90
2023-03-05T02:36:45.617Z,85.30
2023-03-05T02:39:13.984Z,85.36
2023-03-05T02:41:42.265Z,84.29
2023-03-05T02:44:11.055Z,84.95
2023-03-05T02:46:39.421Z,84.12
2023-03-05T02:49:07.760Z,83.61
2023-03-05T02:51:36.183Z,84.46
2023-03-05T02:54:06.191Z,84.68
2023-03-05T02:56:34.558Z,84.77
2023-03-05T02:59:02.879Z,84.63
2023-03-05T03:01:31.279Z,85.47
2023-03-05T03:04:00.043Z,85.47
2023-03-05T03:06:28.364Z,85.52
2023-03-05T03:08:56.816Z,85.06
2023-03-05T03:11:26.512Z,84.78
2023-03-05T03:13:54.798Z,84.80
2023-03-05T03:16:23.165Z,84.92
2023-03-05T03:18:51.548Z,85.31
2023-03-05T03:21:21.978Z,85.45
2023-03-05T03:23:50.392Z,86.05
2023-03-05T03:26:19.266Z,84.96
2023-03-05T03:28:48.972Z,84.76
2023-03-05T03:31:17.404Z,85.16
2023-03-05T03:33:46.370Z,85.10
2023-03-05T03:36:15.038Z,85.31
2023-03-05T03:38:43.488Z,85.40
2023-03-05T03:41:11.852Z,85.79
2023-03-05T03:43:40.152Z,85.49
2023-03-05T03:46:10.629Z,85.14
2023-03-05T03:48:38.955Z,85.19
2023-03-05T03:51:08.437Z,85.42
2023-03-05T03:53:36.835Z,85.35
2023-03-05T03:56:05.824Z,86.35
2023-03-05T03:58:34.421Z,86.44
2023-03-05T04:01:02.848Z,87.89
2023-03-05T04:03:32.629Z,88.05
2023-03-05T04:06:00.961Z,88.44
2023-03-05T04:08:29.287Z,89.28
2023-03-05T04:10:57.644Z,89.94
2023-03-05T04:13:25.985Z,90.08
2023-03-05T04:15:54.657Z,89.94
2023-03-05T04:18:24.014Z,91.07
2023-03-05T04:20:53.660Z,91.30
2023-03-05T04:23:22.126Z,91.65
2023-03-05T04:25:50.627Z,91.63
2023-03-05T04:28:18.952Z,92.08
2023-03-05T04:30:47.359Z,92.87
2023-03-05T04:33:15.906Z,93.48
2023-03-05T04:35:44.341Z,93.59
2023-03-05T04:38:14.114Z,93.85
2023-03-05T04:40:42.582Z,94.36
2023-03-05T04:43:10.914Z,94.84
2023-03-05T04:45:40.687Z,94.82
2023-03-05T04:48:09.894Z,95.13
2023-03-05T04:50:38.278Z,95.67
2023-03-05T04:53:07.214Z,96.25
2023-03-05T04:55:36.889Z,96.23
2023-03-05T04:58:05.234Z,96.78
2023-03-05T05:00:33.649Z,96.90
2023-03-05T05:03:02.050Z,97.25
2023-03-05T05:05:30.543Z,97.57
2023-03-05T05:07:59.264Z,97.83
2023-03-05T05:10:28.360Z,98.23
2023-03-05T05:12:59.534Z,98.88
2023-03-05T05:15:27.927Z,99.53
2023-03-05T05:17:56.237Z,99.09
2023-03-05T05:20:24.553Z,99.02
2023-03-05T05:22:52.886Z,99.01
2023-03-05T05:25:21.251Z,99.57
2023-03-05T05:27:49.548Z,100.00
2023-03-05T05:30:19.249Z,100.00
2023-03-05T05:32:47.596Z,100.00
2023-03-05T05:35:16.065Z,100.00
2023-03-05T05:37:44.372Z,100.00
2023-03-05T05:40:13.631Z,100.00
2023-03-05T05:42:41.990Z,100.00
2023-03-05T05:45:11.732Z,100.00
2023-03-05T05:47:41.409Z,100.00
2023-03-05T05:50:12.031Z,100.00
2023-03-05T05:52:40.619Z,100.00
2023-03-05T05:55:09.991Z,100.00
2023-03-05T05:57:38.612Z,100.00
2023-03-05T06:00:09.837Z,100.00
2023-03-05T06:02:39.399Z,100.00
2023-03-05T06:05:12.658Z,100.00
2023-03-05T06:07:41.337Z,100.00
2023-03-05T06:10:11.236Z,100.00
2023-03-05T06:12:39.577Z,100.00
2023-03-05T06:15:08.930Z,100.00
2023-03-05T06:17:37.296Z,100.00
2023-03-05T06:20:06.931Z,100.00
2023-03-05T06:22:38.364Z,100.00
2023-03-05T06:25:07.910Z,100.00
2023-03-05T06:27:37.093Z,100.00
2023-03-05T06:30:07.091Z,100.00
2023-03-05T06:32:35.419Z,100.00
2023-03-05T06:35:03.945Z,100.00
2023-03-05T06:37:32.254Z,100.00
2023-03-05T06:40:01.975Z,100.00
2023-03-05T06:42:30.376Z,100.00
2023-03-05T06:44:58.744Z,100.00
2023-03-05T06:47:27.047Z,100.00
2023-03-05T06:49:55.435Z,100.00
2023-03-05T06:52:23.741Z,100.00
2023-03-05T06:54:52.807Z,100.00
2023-03-05T06:57:22.635Z,100.00
2023-03-05T06:59:51.202Z,100.00
2023-03-05T07:02:20.059Z,99.88
2023-03-05T07:04:48.435Z,99.69
2023-03-05T07:07:16.790Z,98.81
2023-03-05T07:09:45.932Z,99.04
2023-03-05T07:12:14.628Z,98.05
2023-03-05T07:14:44.262Z,98.29
2023-03-05T07:17:15.269Z,97.44
2023-03-05T07:19:43.962Z,97.22
2023-03-05T07:22:12.270Z,95.92
2023-03-05T07:24:40.659Z,95.97
2023-03-05T07:27:08.956Z,95.71
2023-03-05T07:29:37.310Z,95.82
2023-03-05T07:32:07.560Z,95.22
2023-03-05T07:34:38.027Z,94.75
2023-03-05T07:37:06.675Z,95.33
2023-03-05T07:39:35.009Z,95.04
2023-03-05T07:42:03.557Z,94.27
2023-03-05T07:44:31.911Z,95.03
2023-03-05T07:47:00.246Z,94.25
2023-03-05T07:49:29.929Z,93.00
2023-03-05T07:51:58.236Z,93.06
2023-03-05T07:54:26.690Z,93.28
2023-03-05T07:56:55.887Z,93.49
2023-03-05T07:59:24.208Z,93.26
2023-03-05T08:01:52.541Z,92.81
2023-03-05T08:04:20.907Z,92.99
2023-03-05T08:06:50.854Z,92.24
2023-03-05T08:09:20.169Z,92.12
2023-03-05T08:11:48.660Z,92.39
2023-03-05T08:14:17.168Z,90.73
2023-03-05T08:16:48.336Z,90.42
2023-03-05T08:19:16.966Z,89.42
2023-03-05T08:21:46.310Z,89.78
2023-03-05T08:24:16.292Z,89.06
2023-03-05T08:26:44.761Z,87.78
2023-03-05T08:29:13.069Z,87.85
2023-03-05T08:31:41.684Z,88.08
2023-03-05T08:34:10.196Z,87.45
2023-03-05T08:36:38.522Z,86.48
2023-03-05T08:39:08.534Z,85.34
2023-03-05T08:41:38.397Z,84.88
2023-03-05T08:44:06.830Z,83.38
2023-03-05T08:46:35.308Z,82.10
2023-03-05T08:49:03.822Z,81.62
2023-03-05T08:51:32.368Z,80.11
2023-03-05T08:54:01.852Z,81.03
2023-03-05T08:56:31.422Z,81.43
2023-03-05T08:59:01.221Z,80.98
2023-03-05T09:01:30.816Z,80.46
2023-03-05T09:04:00.419Z,78.37
2023-03-05T09:06:29.374Z,76.38
2023-03-05T09:08:57.797Z,77.49
2023-03-05T09:11:26.211Z,77.73
2023-03-05T09:13:54.551Z,78.94
2023-03-05T09:16:24.366Z,77.51
2023-03-05T09:18:52.741Z,77.25
2023-03-05T09:21:21.152Z,75.99
2023-03-05T09:23:49.494Z,75.15
2023-03-05T09:26:20.759Z,74.11
2023-03-05T09:28:49.308Z,72.00
2023-03-05T09:31:18.319Z,72.85
2023-03-05T09:33:49.133Z,72.22
2023-03-05T09:36:21.065Z,70.94
2023-03-05T09:38:49.705Z,71.75
2023-03-05T09:41:27.399Z,73.01
2023-03-05T09:44:03.028Z,73.11
2023-03-05T09:46:45.306Z,72.63
2023-03-05T09:49:21.949Z,73.47
2023-03-05T09:51:55.566Z,73.65
2023-03-05T09:54:29.144Z,73.66
2023-03-05T09:57:04.358Z,73.04
2023-03-05T09:59:38.440Z,72.36
2023-03-05T10:02:17.303Z,72.64
2023-03-05T10:04:52.665Z,72.50
2023-03-05T10:07:27.166Z,72.41
2023-03-05T10:09:59.294Z,73.06
2023-03-05T10:12:42.284Z,73.56
2023-03-05T10:15:14.452Z,73.76
2023-03-05T10:17:55.891Z,72.15
2023-03-05T10:20:34.251Z,71.81
2023-03-05T10:23:17.876Z,72.48
2023-03-05T10:25:59.258Z,73.06
2023-03-05T10:28:36.912Z,72.55
2023-03-05T10:31:24.834Z,72.22
2023-03-05T10:34:04.460Z,72.83
2023-03-05T10:36:46.852Z,73.31
2023-03-05T10:40:00.849Z,74.82
2023-03-05T10:42:36.709Z,76.62
2023-03-05T10:45:15.150Z,81.28
2023-03-05T10:47:50.469Z,85.15
2023-03-05T10:50:22.613Z,85.55
2023-03-05T10:53:04.268Z,86.68
2023-03-05T10:55:33.260Z,87.82
2023-03-05T10:58:03.290Z,87.97
2023-03-05T11:00:32.273Z,88.33
2023-03-05T11:03:02.721Z,88.17
2023-03-05T11:05:45.580Z,88.06
2023-03-05T11:08:33.213Z,84.75
2023-03-05T11:11:14.771Z,83.52
2023-03-05T11:14:00.008Z,84.31
2023-03-05T11:16:30.555Z,84.98
2023-03-05T11:19:19.954Z,85.72
2023-03-05T11:22:05.686Z,85.43
2023-03-05T11:24:35.388Z,86.86
2023-03-05T11:27:10.270Z,87.19
2023-03-05T11:29:49.503Z,86.20
2023-03-05T11:32:22.608Z,84.72
2023-03-05T11:34:51.207Z,84.07
2023-03-05T11:37:27.238Z,82.25
2023-03-05T11:40:21.035Z,80.87
2023-03-05T11:42:56.540Z,82.05
2023-03-05T11:45:26.676Z,83.06
2023-03-05T11:47:57.098Z,80.22
2023-03-05T11:50:27.595Z,80.35
2023-03-05T11:52:58.796Z,80.31
2023-03-05T11:55:31.076Z,80.08
2023-03-05T11:58:14.017Z,79.99
2023-03-05T12:00:45.808Z,79.35
2023-03-05T12:03:17.155Z,80.58
2023-03-05T12:05:49.275Z,79.45
2023-03-05T12:08:25.572Z,79.79
2023-03-05T12:10:58.525Z,79.71
2023-03-05T12:13:32.708Z,79.10
2023-03-05T12:16:11.525Z,80.25
2023-03-05T12:18:49.047Z,79.72
2023-03-05T12:21:26.566Z,79.80
2023-03-05T12:23:58.988Z,78.47
2023-03-05T12:27:07.114Z,78.04
2023-03-05T12:29:41.838Z,77.10
2023-03-05T12:32:43.432Z,75.78
2023-03-05T12:35:24.676Z,75.97
2023-03-05T12:38:06.158Z,73.24
2023-03-05T12:40:39.377Z,70.57
2023-03-05T12:43:30.202Z,69.76
2023-03-05T12:46:26.792Z,70.59
2023-03-05T12:48:55.243Z,70.25
2023-03-05T12:51:39.731Z,71.38
2023-03-05T12:54:29.011Z,69.75
2023-03-05T12:56:58.828Z,70.15
2023-03-05T12:59:38.401Z,69.98
2023-03-05T13:02:20.214Z,70.34
2023-03-05T13:04:49.263Z,68.51
2023-03-05T13:07:19.741Z,68.70
2023-03-05T13:09:55.710Z,68.19
2023-03-05T13:12:26.041Z,68.17
2023-03-05T13:15:03.621Z,69.21
2023-03-05T13:17:37.975Z,69.58
2023-03-05T13:20:21.155Z,69.18
2023-03-05T13:22:49.519Z,72.17
2023-03-05T13:25:20.590Z,73.11
2023-03-05T13:27:48.988Z,72.89
2023-03-05T13:30:28.060Z,73.79
2023-03-05T13:33:02.844Z,74.03
2023-03-05T13:35:31.671Z,73.00
2023-03-05T13:38:00.827Z,72.77
2023-03-05T13:40:30.635Z,73.02
2023-03-05T13:43:11.992Z,73.95
2023-03-05T13:45:44.433Z,72.59
2023-03-05T13:48:20.477Z,71.26
2023-03-05T13:50:56.240Z,70.10
2023-03-05T13:53:26.736Z,71.09
2023-03-05T13:55:58.247Z,70.91
2023-03-05T13:58:53.247Z,71.57
2023-03-05T14:01:36.713Z,72.43
2023-03-05T14:04:09.057Z,74.03
2023-03-05T14:06:42.548Z,74.34
2023-03-05T14:09:21.267Z,75.08
2023-03-05T14:11:58.170Z,75.77
2023-03-05T14:14:28.329Z,75.92
2023-03-05T14:17:38.556Z,76.94
2023-03-05T14:20:23.051Z,78.45
2023-03-05T14:22:53.422Z,79.69
2023-03-05T14:25:34.944Z,79.27
2023-03-05T14:28:05.385Z,77.77
2023-03-05T14:30:36.092Z,75.35
2023-03-05T14:33:06.176Z,76.06
2023-03-05T14:35:34.627Z,77.16
2023-03-05T14:38:03.304Z,77.66
2023-03-05T14:40:33.974Z,76.71
2023-03-05T14:43:04.017Z,76.32
2023-03-05T14:45:34.540Z,76.27
2023-03-05T14:48:07.101Z,75.70
2023-03-05T14:50:37.877Z,75.00
2023-03-05T14:53:10.018Z,75.02
2023-03-05T14:55:39.336Z,74.94
2023-03-05T14:58:13.278Z,75.85
2023-03-05T15:00:41.841Z,75.82
2023-03-05T15:03:13.404Z,76.30
2023-03-05T15:05:42.338Z,76.83
2023-03-05T15:08:15.713Z,76.60
2023-03-05T15:10:44.107Z,76.17
2023-03-05T15:13:14.480Z,76.10
2023-03-05T15:15:43.936Z,76.42
2023-03-05T15:18:15.182Z,77.38
2023-03-05T15:20:44.003Z,76.18
2023-03-05T15:23:13.212Z,76.18
2023-03-05T15:25:42.417Z,76.32
2023-03-05T15:28:11.132Z,76.20
2023-03-05T15:30:42.422Z,76.20
2023-03-05T15:33:13.950Z,77.00
2023-03-05T15:35:42.919Z,77.51
2023-03-05T15:38:11.607Z,77.69
2023-03-05T15:40:40.015Z,78.60
2023-03-05T15:43:08.382Z,78.24
2023-03-05T15:45:36.697Z,77.55
2023-03-05T15:48:05.447Z,77.14
2023-03-05T15:50:35.436Z,78.16
2023-03-05T15:53:03.728Z,78.48
2023-03-05T15:55:32.106Z,79.20
2023-03-05T15:58:00.471Z,79.33
2023-03-05T16:00:31.822Z,79.51
2023-03-05T16:03:00.236Z,79.92
2023-03-05T16:05:28.738Z,80.19
2023-03-05T16:07:59.918Z,80.36
2023-03-05T16:10:30.715Z,79.72
2023-03-05T16:13:02.624Z,79.49
2023-03-05T16:15:33.278Z,79.33
2023-03-05T16:18:05.692Z,79.98
2023-03-05T16:20:36.201Z,79.93
2023-03-05T16:23:07.072Z,80.28
2023-03-05T16:25:35.611Z,80.38
2023-03-05T16:28:04.188Z,80.49
2023-03-05T16:30:33.509Z,80.92
2023-03-05T16:33:01.902Z,81.03
2023-03-05T16:35:30.800Z,81.05
2023-03-05T16:37:59.311Z,80.11
2023-03-05T16:40:38.813Z,80.42
2023-03-05T16:43:17.729Z,80.04
2023-03-05T16:45:46.027Z,80.41
2023-03-05T16:48:14.338Z,81.35
2023-03-05T16:50:42.645Z,81.45
2023-03-05T16:53:11.006Z,81.37
2023-03-05T16:55:40.769Z,81.11
2023-03-05T16:58:09.047Z,81.80
2023-03-05T17:00:37.847Z,81.98
2023-03-05T17:03:06.973Z,82.27
2023-03-05T17:05:36.949Z,82.00
2023-03-05T17:08:05.997Z,82.89
2023-03-05T17:10:34.656Z,83.26
2023-03-05T17:13:05.195Z,83.58
2023-03-05T17:15:34.055Z,84.23
2023-03-05T17:18:02.560Z,84.45
2023-03-05T17:20:31.201Z,84.70
2023-03-05T17:23:02.089Z,86.14
2023-03-05T17:25:30.606Z,85.23
2023-03-05T17:27:59.813Z,85.56
2023-03-05T17:30:31.307Z,86.54
2023-03-05T17:32:59.835Z,86.09
2023-03-05T17:35:29.635Z,86.59
2023-03-05T17:37:59.031Z,85.98
2023-03-05T17:40:27.406Z,85.81
2023-03-05T17:42:56.095Z,86.25
2023-03-05T17:45:24.667Z,87.22
2023-03-05T17:47:54.434Z,87.38
2023-03-05T17:50:22.808Z,87.16
2023-03-05T17:52:51.191Z,87.17
2023-03-05T17:55:20.126Z,87.87
2023-03-05T17:57:48.467Z,87.39
2023-03-05T18:00:19.539Z,87.86
2023-03-05T18:02:48.399Z,87.81
2023-03-05T18:05:19.257Z,86.86
2023-03-05T18:07:48.199Z,87.63
2023-03-05T18:10:19.389Z,87.55
2023-03-05T18:12:48.244Z,88.32
2023-03-05T18:15:19.775Z,88.24
2023-03-05T18:17:48.271Z,88.74
2023-03-05T18:20:27.399Z,88.60
2023-03-05T18:22:56.857Z,88.76
2023-03-05T18:25:30.796Z,88.09
2023-03-05T18:28:00.664Z,87.48
2023-03-05T18:30:29.789Z,86.81
2023-03-05T18:32:58.834Z,88.17
2023-03-05T18:35:30.025Z,87.84
2023-03-05T18:37:58.591Z,87.79
2023-03-05T18:40:29.136Z,87.76
2023-03-05T18:43:01.352Z,87.39
2023-03-05T18:45:31.097Z,87.22
2023-03-05T18:47:59.429Z,88.16
2023-03-05T18:50:29.839Z,87.39
2023-03-05T18:52:58.300Z,87.65
2023-03-05T18:55:29.055Z,87.60
2023-03-05T18:57:58.253Z,88.24
2023-03-05T19:00:28.839Z,87.61
2023-03-05T19:02:58.536Z,87.84
2023-03-05T19:05:27.629Z,86.84
2023-03-05T19:07:58.452Z,87.29
2023-03-05T19:10:29.364Z,87.98
2023-03-05T19:13:08.038Z,88.50
2023-03-05T19:15:36.373Z,87.50
2023-03-05T19:18:04.916Z,88.62
2023-03-05T19:20:33.408Z,89.08
2023-03-05T19:23:03.257Z,89.40
2023-03-05T19:25:31.661Z,89.78
2023-03-05T19:28:00.033Z,89.92
2023-03-05T19:30:28.540Z,90.83
2023-03-05T19:32:57.600Z,92.22
2023-03-05T19:35:26.015Z,92.50
2023-03-05T19:37:54.383Z,93.70
2023-03-05T19:40:24.413Z,94.19
2023-03-05T19:42:52.805Z,94.99
2023-03-05T19:45:21.195Z,95.29
2023-03-05T19:47:49.540Z,95.21
2023-03-05T19:50:18.152Z,95.08
2023-03-05T19:52:46.565Z,96.89
2023-03-05T19:55:15.156Z,97.28
2023-03-05T19:57:46.364Z,96.76
2023-03-05T20:00:15.179Z,97.54
2023-03-05T20:02:44.152Z,97.81
2023-03-05T20:05:12.533Z,98.51
2023-03-05T20:07:40.852Z,98.79
2023-03-05T20:10:10.082Z,98.91
2023-03-05T20:12:39.230Z,99.68
2023-03-05T20:15:09.754Z,100.00
2023-03-05T20:17:38.120Z,100.00
2023-03-05T20:20:08.053Z,100.00
2023-03-05T20:22:36.446Z,100.00
2023-03-05T20:25:06.820Z,100.00
2023-03-05T20:27:35.194Z,100.00
2023-03-05T20:30:05.167Z,100.00
2023-03-05T20:32:34.886Z,100.00
2023-03-05T20:35:03.212Z,100.00
2023-03-05T20:37:40.078Z,100.00
2023-03-05T20:40:10.020Z,100.00
2023-03-05T20:42:38.500Z,100.00
2023-03-05T20:45:08.100Z,100.00
2023-03-05T20:47:40.819Z,100.00
2023-03-05T20:50:10.817Z,100.00
2023-03-05T20:52:39.727Z,100.00
2023-03-05T20:55:09.742Z,100.00
2023-03-05T20:57:39.098Z,100.00
2023-03-05T21:00:08.558Z,100.00
2023-03-05T21:02:38.227Z,100.00
2023-03-05T21:05:07.435Z,100.00
2023-03-05T21:07:35.936Z,100.00
2023-03-05T21:10:04.872Z,100.00
2023-03-05T21:12:33.415Z,100.00
2023-03-05T21:15:01.766Z,100.00
2023-03-05T21:17:30.097Z,100.00
2023-03-05T21:19:59.811Z,100.00
2023-03-05T21:22:28.490Z,100.00
2023-03-05T21:25:03.275Z,100.00
2023-03-05T21:27:31.635Z,100.00
2023-03-05T21:29:59.928Z,100.00
2023-03-05T21:32:28.257Z,100.00
2023-03-05T21:34:57.230Z,100.00
2023-03-05T21:37:27.981Z,100.00
2023-03-05T21:39:56.454Z,100.00
2023-03-05T21:42:24.995Z,100.00
2023-03-05T21:44:53.331Z,100.00
2023-03-05T21:47:21.633Z,100.00
2023-03-05T21:49:49.987Z,100.00
2023-03-05T21:52:19.347Z,100.00
2023-03-05T21:54:49.080Z,100.00
2023-03-05T21:57:17.370Z,100.00
2023-03-05T21:59:45.690Z,100.00
2023-03-05T22:02:15.732Z,100.00
2023-03-05T22:04:44.354Z,100.00
2023-03-05T22:07:12.998Z,100.00
2023-03-05T22:09:41.331Z,100.00
2023-03-05T22:12:15.071Z,100.00
2023-03-05T22:14:43.382Z,100.00
2023-03-05T22:17:11.695Z,100.00
2023-03-05T22:19:39.993Z,100.00
2023-03-05T22:22:08.384Z,100.00
2023-03-05T22:24:36.672Z,100.00
2023-03-05T22:27:05.164Z,100.00
2023-03-05T22:29:34.862Z,100.00
2023-03-05T22:32:03.241Z,100.00
2023-03-05T22:34:31.689Z,100.00
2023-03-05T22:37:00.022Z,100.00
2023-03-05T22:39:28.446Z,100.00
2023-03-05T22:41:56.733Z,100.00
2023-03-05T22:44:25.218Z,100.00
2023-03-05T22:46:54.968Z,100.00
2023-03-05T22:49:23.327Z,100.00
2023-03-05T22:51:51.640Z,100.00
2023-03-05T22:54:20.007Z,100.00
2023-03-05T22:56:48.475Z,100.00
2023-03-05T22:59:16.797Z,100.00
2023-03-05T23:01:45.146Z,100.00
2023-03-05T23:04:29.477Z,100.00
2023-03-05T23:06:57.800Z,100.00
2023-03-05T23:09:26.250Z,100.00
2023-03-05T23:11:54.543Z,100.00
2023-03-05T23:14:22.873Z,100.00
2023-03-05T23:16:51.227Z,100.00
2023-03-05T23:19:20.898Z,100.00
2023-03-05T23:21:49.262Z,100.00
2023-03-05T23:24:17.614Z,100.00
2023-03-05T23:26:46.033Z,100.00
2023-03-05T23:29:14.795Z,100.00
2023-03-05T23:31:43.113Z,100.00
2023-03-05T23:34:11.698Z,100.00
2023-03-05T23:36:42.151Z,100.00
2023-03-05T23:39:10.536Z,100.00
2023-03-05T23:41:38.861Z,100.00
2023-03-05T23:44:07.165Z,100.00
2023-03-05T23:46:35.601Z,100.00
2023-03-05T23:49:03.961Z,100.00
2023-03-05T23:51:32.335Z,100.00
2023-03-05T23:54:02.033Z,100.00
2023-03-05T23:56:31.426Z,100.00
2023-03-05T23:59:00.580Z,100.00
